createdAt,value
2018-01-13T00:00:55.298Z,3.96
2018-01-13T00:01:55.273Z,4.06
2018-01-13T00:02:55.256Z,4.17
2018-01-13T00:03:55.249Z,4.20
2018-01-13T00:04:55.224Z,4.18
2018-01-13T00:05:55.204Z,4.25
2018-01-13T00:06:55.190Z,4.24
2018-01-13T00:07:55.172Z,4.34
2018-01-13T00:08:55.154Z,4.46
2018-01-13T00:09:55.138Z,4.50
2018-01-13T00:10:55.120Z,4.53
2018-01-13T00:11:55.103Z,4.54
2018-01-13T00:12:55.089Z,4.54
2018-01-13T00:13:55.078Z,4.43
2018-01-13T00:14:55.059Z,4.44
2018-01-13T00:15:55.036Z,4.47
2018-01-13T00:16:55.025Z,4.49
2018-01-13T00:17:55.003Z,4.49
2018-01-13T00:18:54.984Z,4.47
2018-01-13T00:19:54.969Z,4.53
2018-01-13T00:20:54.956Z,4.50
2018-01-13T00:21:54.936Z,4.62
2018-01-13T00:22:54.918Z,4.74
2018-01-13T00:23:54.901Z,4.69
2018-01-13T00:24:54.888Z,4.84
2018-01-13T00:25:54.868Z,4.79
2018-01-13T00:26:54.850Z,4.83
2018-01-13T00:27:54.840Z,4.80
2018-01-13T00:28:54.817Z,4.88
2018-01-13T00:29:54.803Z,4.94
2018-01-13T00:30:54.787Z,4.96
2018-01-13T00:31:54.767Z,4.93
2018-01-13T00:32:54.753Z,4.87
2018-01-13T00:33:54.734Z,4.91
2018-01-13T00:34:54.732Z,4.96
2018-01-13T00:35:54.708Z,4.93
2018-01-13T00:36:54.688Z,4.99
2018-01-13T00:37:54.676Z,4.84
2018-01-13T00:38:54.660Z,4.80
2018-01-13T00:39:54.637Z,4.74
2018-01-13T00:40:54.628Z,4.84
2018-01-13T00:41:54.603Z,4.86
2018-01-13T00:42:54.586Z,4.83
2018-01-13T00:43:54.575Z,4.84
2018-01-13T00:44:54.554Z,4.91
2018-01-13T00:45:54.542Z,4.90
2018-01-13T00:46:54.526Z,4.91
2018-01-13T00:47:54.508Z,4.96
2018-01-13T00:48:54.493Z,4.90
2018-01-13T00:49:54.471Z,4.84
2018-01-13T00:50:54.464Z,4.99
2018-01-13T00:51:54.443Z,4.94
2018-01-13T00:52:54.424Z,5.09
2018-01-13T00:53:54.405Z,5.08
2018-01-13T00:54:54.390Z,5.05
2018-01-13T00:55:54.379Z,5.05
2018-01-13T00:56:54.403Z,5.04
2018-01-13T00:57:54.340Z,5.08
2018-01-13T00:58:54.323Z,5.08
2018-01-13T00:59:54.312Z,5.20
2018-01-13T01:00:54.291Z,5.22
2018-01-13T01:01:54.274Z,5.17
2018-01-13T01:02:54.261Z,5.06
2018-01-13T01:03:54.242Z,5.04
2018-01-13T01:04:54.232Z,5.08
2018-01-13T01:05:54.207Z,5.09
2018-01-13T01:06:54.194Z,5.02
2018-01-13T01:07:54.176Z,4.94
2018-01-13T01:08:54.160Z,5.02
2018-01-13T01:09:54.145Z,4.87
2018-01-13T01:10:54.133Z,4.86
2018-01-13T01:11:54.118Z,4.88
2018-01-13T01:12:54.094Z,4.80
2018-01-13T01:13:54.083Z,4.88
2018-01-13T01:14:54.063Z,4.93
2018-01-13T01:15:54.046Z,4.99
2018-01-13T01:16:54.029Z,5.05
2018-01-13T01:17:54.018Z,5.05
2018-01-13T01:18:53.998Z,5.09
2018-01-13T01:19:53.984Z,5.06
2018-01-13T01:20:53.965Z,5.14
2018-01-13T01:21:53.946Z,5.11
2018-01-13T01:22:53.935Z,5.06
2018-01-13T01:23:53.922Z,5.17
2018-01-13T01:24:53.906Z,5.24
2018-01-13T01:25:53.882Z,5.19
2018-01-13T01:26:53.868Z,5.19
2018-01-13T01:27:53.850Z,5.19
2018-01-13T01:28:53.833Z,5.26
2018-01-13T01:29:53.816Z,5.29
2018-01-13T01:30:53.804Z,5.11
2018-01-13T01:31:53.783Z,5.09
2018-01-13T01:32:53.770Z,5.14
2018-01-13T01:33:53.752Z,5.08
2018-01-13T01:34:53.741Z,5.01
2018-01-13T01:35:53.720Z,5.01
2018-01-13T01:36:53.707Z,4.96
2018-01-13T01:37:53.688Z,4.99
2018-01-13T01:38:53.676Z,4.91
2018-01-13T01:39:53.653Z,4.91
2018-01-13T01:40:53.641Z,4.88
2018-01-13T01:41:53.621Z,4.90
2018-01-13T01:42:53.609Z,4.84
2018-01-13T01:43:53.594Z,4.83
2018-01-13T01:44:53.570Z,4.86
2018-01-13T01:45:53.554Z,4.90
2018-01-13T01:46:53.536Z,4.93
2018-01-13T01:47:53.521Z,4.80
2018-01-13T01:48:53.505Z,4.93
2018-01-13T01:49:53.492Z,4.87
2018-01-13T01:50:53.470Z,4.84
2018-01-13T01:51:53.455Z,4.69
2018-01-13T01:52:53.438Z,4.79
2018-01-13T01:53:53.421Z,4.80
2018-01-13T01:54:53.403Z,4.72
2018-01-13T01:55:53.395Z,4.80
2018-01-13T01:56:53.373Z,4.69
2018-01-13T01:57:53.356Z,4.69
2018-01-13T01:58:53.346Z,4.75
2018-01-13T01:59:53.327Z,4.74
2018-01-13T02:00:53.302Z,4.72
2018-01-13T02:01:53.286Z,4.69
2018-01-13T02:02:53.270Z,4.77
2018-01-13T02:03:53.261Z,4.72
2018-01-13T02:04:53.238Z,4.65
2018-01-13T02:05:53.220Z,4.68
2018-01-13T02:06:53.209Z,4.67
2018-01-13T02:07:53.187Z,4.67
2018-01-13T02:08:53.175Z,4.59
2018-01-13T02:09:53.156Z,4.65
2018-01-13T02:10:53.136Z,4.69
2018-01-13T02:11:53.117Z,4.62
2018-01-13T02:12:53.112Z,4.69
2018-01-13T02:13:53.084Z,4.72
2018-01-13T02:14:53.066Z,4.69
2018-01-13T02:15:53.050Z,4.68
2018-01-13T02:16:53.035Z,4.67
2018-01-13T02:17:53.022Z,4.75
2018-01-13T02:18:53.002Z,4.72
2018-01-13T02:19:52.982Z,4.68
2018-01-13T02:20:52.975Z,4.62
2018-01-13T02:21:52.949Z,4.62
2018-01-13T02:22:52.932Z,4.62
2018-01-13T02:23:52.916Z,4.69
2018-01-13T02:24:52.903Z,4.57
2018-01-13T02:25:52.879Z,4.69
2018-01-13T02:26:52.862Z,4.67
2018-01-13T02:27:52.847Z,4.62
2018-01-13T02:28:52.829Z,4.69
2018-01-13T02:29:52.813Z,4.68
2018-01-13T02:30:52.796Z,4.57
2018-01-13T02:31:52.782Z,4.59
2018-01-13T02:32:52.761Z,4.59
2018-01-13T02:33:52.750Z,4.56
2018-01-13T02:34:52.727Z,4.56
2018-01-13T02:35:52.710Z,4.46
2018-01-13T02:36:52.691Z,4.54
2018-01-13T02:37:52.673Z,4.53
2018-01-13T02:38:52.660Z,4.44
2018-01-13T02:39:52.648Z,4.57
2018-01-13T02:40:52.623Z,4.53
2018-01-13T02:41:52.605Z,4.59
2018-01-13T02:42:52.589Z,4.54
2018-01-13T02:43:52.571Z,4.47
2018-01-13T02:44:52.553Z,4.61
2018-01-13T02:45:52.539Z,4.61
2018-01-13T02:46:52.526Z,4.46
2018-01-13T02:47:52.502Z,4.51
2018-01-13T02:48:52.489Z,4.59
2018-01-13T02:49:52.477Z,4.50
2018-01-13T02:50:52.454Z,4.54
2018-01-13T02:51:52.434Z,4.56
2018-01-13T02:52:52.423Z,4.67
2018-01-13T02:53:52.404Z,4.62
2018-01-13T02:54:52.382Z,4.72
2018-01-13T02:55:52.374Z,4.71
2018-01-13T02:56:52.349Z,4.67
2018-01-13T02:57:52.329Z,4.65
2018-01-13T02:58:52.331Z,4.67
2018-01-13T02:59:52.302Z,4.67
2018-01-13T03:00:52.279Z,4.65
2018-01-13T03:01:52.263Z,4.57
2018-01-13T03:02:52.250Z,4.68
2018-01-13T03:03:52.229Z,4.61
2018-01-13T03:04:52.209Z,4.59
2018-01-13T03:05:52.192Z,4.62
2018-01-13T03:06:52.175Z,4.71
2018-01-13T03:07:52.161Z,4.71
2018-01-13T03:08:52.141Z,4.72
2018-01-13T03:09:52.132Z,4.65
2018-01-13T03:10:52.108Z,4.62
2018-01-13T03:11:52.092Z,4.74
2018-01-13T03:12:52.075Z,4.65
2018-01-13T03:13:52.064Z,4.59
2018-01-13T03:14:52.037Z,4.68
2018-01-13T03:15:52.021Z,4.65
2018-01-13T03:16:52.009Z,4.56
2018-01-13T03:17:51.986Z,4.56
2018-01-13T03:18:51.971Z,4.61
2018-01-13T03:19:51.953Z,4.61
2018-01-13T03:20:51.940Z,4.61
2018-01-13T03:21:51.917Z,4.64
2018-01-13T03:22:51.901Z,4.54
2018-01-13T03:23:51.882Z,4.50
2018-01-13T03:24:51.872Z,4.56
2018-01-13T03:25:51.852Z,4.59
2018-01-13T03:26:51.833Z,4.57
2018-01-13T03:27:51.817Z,4.54
2018-01-13T03:28:51.798Z,4.49
2018-01-13T03:29:51.779Z,4.49
2018-01-13T03:30:51.765Z,4.49
2018-01-13T03:31:51.745Z,4.42
2018-01-13T03:32:51.730Z,4.44
2018-01-13T03:33:51.710Z,4.42
2018-01-13T03:34:51.693Z,4.44
2018-01-13T03:35:51.686Z,4.47
2018-01-13T03:36:51.658Z,4.38
2018-01-13T03:37:51.644Z,4.39
2018-01-13T03:38:51.624Z,4.36
2018-01-13T03:39:51.612Z,4.39
2018-01-13T03:40:51.590Z,4.36
2018-01-13T03:41:51.574Z,4.39
2018-01-13T03:42:51.560Z,4.46
2018-01-13T03:43:51.542Z,4.46
2018-01-13T03:44:51.519Z,4.49
2018-01-13T03:45:51.502Z,4.43
2018-01-13T03:46:51.485Z,4.43
2018-01-13T03:47:51.469Z,4.43
2018-01-13T03:48:51.453Z,4.47
2018-01-13T03:49:51.439Z,4.44
2018-01-13T03:50:51.417Z,4.44
2018-01-13T03:51:51.402Z,4.46
2018-01-13T03:52:51.384Z,4.44
2018-01-13T03:53:51.364Z,4.44
2018-01-13T03:54:51.346Z,4.47
2018-01-13T03:55:51.329Z,4.50
2018-01-13T03:56:51.319Z,4.46
2018-01-13T03:57:51.294Z,4.43
2018-01-13T03:58:51.277Z,4.47
2018-01-13T03:59:51.266Z,4.53
2018-01-13T04:00:51.242Z,4.53
2018-01-13T04:01:51.224Z,4.51
2018-01-13T04:02:51.208Z,4.57
2018-01-13T04:03:51.191Z,4.56
2018-01-13T04:04:51.176Z,4.65
2018-01-13T04:05:51.158Z,4.62
2018-01-13T04:06:51.140Z,4.65
2018-01-13T04:07:51.129Z,4.62
2018-01-13T04:08:51.111Z,4.69
2018-01-13T04:09:51.152Z,4.68
2018-01-13T04:10:51.071Z,4.67
2018-01-13T04:11:51.055Z,4.71
2018-01-13T04:12:51.039Z,4.65
2018-01-13T04:13:51.026Z,4.74
2018-01-13T04:14:51.002Z,4.69
2018-01-13T04:15:50.986Z,4.72
2018-01-13T04:16:50.976Z,4.71
2018-01-13T04:17:50.956Z,4.65
2018-01-13T04:18:50.941Z,4.67
2018-01-13T04:19:50.917Z,4.68
2018-01-13T04:20:50.902Z,4.64
2018-01-13T04:21:50.892Z,4.61
2018-01-13T04:22:50.869Z,4.67
2018-01-13T04:23:50.849Z,4.72
2018-01-13T04:24:50.833Z,4.74
2018-01-13T04:25:50.818Z,4.80
2018-01-13T04:26:50.798Z,4.67
2018-01-13T04:27:50.783Z,4.68
2018-01-13T04:28:50.767Z,4.64
2018-01-13T04:29:50.748Z,4.68
2018-01-13T04:30:50.731Z,4.62
2018-01-13T04:31:50.715Z,4.68
2018-01-13T04:32:50.697Z,4.59
2018-01-13T04:33:50.683Z,4.67
2018-01-13T04:34:50.665Z,4.50
2018-01-13T04:35:50.651Z,4.67
2018-01-13T04:36:50.628Z,4.62
2018-01-13T04:37:50.610Z,4.68
2018-01-13T04:38:50.601Z,4.59
2018-01-13T04:39:50.578Z,4.64
2018-01-13T04:40:50.561Z,4.56
2018-01-13T04:41:50.543Z,4.65
2018-01-13T04:42:50.533Z,4.64
2018-01-13T04:43:50.509Z,4.71
2018-01-13T04:44:50.492Z,4.69
2018-01-13T04:45:50.474Z,4.62
2018-01-13T04:46:50.465Z,4.51
2018-01-13T04:47:50.447Z,4.50
2018-01-13T04:48:50.425Z,4.57
2018-01-13T04:49:50.408Z,4.47
2018-01-13T04:50:50.395Z,4.51
2018-01-13T04:51:50.381Z,4.51
2018-01-13T04:52:50.357Z,4.56
2018-01-13T04:53:50.340Z,4.64
2018-01-13T04:54:50.324Z,4.64
2018-01-13T04:55:50.305Z,4.74
2018-01-13T04:56:50.292Z,4.79
2018-01-13T04:57:50.271Z,4.77
2018-01-13T04:58:50.255Z,4.79
2018-01-13T04:59:50.241Z,4.79
2018-01-13T05:00:50.227Z,4.80
2018-01-13T05:01:50.208Z,4.80
2018-01-13T05:02:50.194Z,4.90
2018-01-13T05:03:50.169Z,4.86
2018-01-13T05:04:50.151Z,4.93
2018-01-13T05:05:50.138Z,5.02
2018-01-13T05:06:50.124Z,5.01
2018-01-13T05:07:50.104Z,4.90
2018-01-13T05:08:50.088Z,4.91
2018-01-13T05:09:50.075Z,4.96
2018-01-13T05:10:50.052Z,5.02
2018-01-13T05:11:50.039Z,4.99
2018-01-13T05:12:50.019Z,4.93
2018-01-13T05:13:50.006Z,4.99
2018-01-13T05:14:49.985Z,5.08
2018-01-13T05:15:49.968Z,5.22
2018-01-13T05:16:49.952Z,5.15
2018-01-13T05:17:49.933Z,5.12
2018-01-13T05:18:49.915Z,5.05
2018-01-13T05:19:49.906Z,5.06
2018-01-13T05:20:49.884Z,5.05
2018-01-13T05:21:49.866Z,4.96
2018-01-13T05:22:49.859Z,4.96
2018-01-13T05:23:49.833Z,4.99
2018-01-13T05:24:49.823Z,4.87
2018-01-13T05:25:49.799Z,4.87
2018-01-13T05:26:49.784Z,4.91
2018-01-13T05:27:49.771Z,4.80
2018-01-13T05:28:49.750Z,4.96
2018-01-13T05:29:49.736Z,4.88
2018-01-13T05:30:49.719Z,4.84
2018-01-13T05:31:49.700Z,4.86
2018-01-13T05:32:49.686Z,4.93
2018-01-13T05:33:49.667Z,5.01
2018-01-13T05:34:49.652Z,5.01
2018-01-13T05:35:49.641Z,4.96
2018-01-13T05:36:49.624Z,4.91
2018-01-13T05:37:49.608Z,4.96
2018-01-13T05:38:49.590Z,4.93
2018-01-13T05:39:49.573Z,4.90
2018-01-13T05:40:49.553Z,4.91
2018-01-13T05:41:49.541Z,4.91
2018-01-13T05:42:49.520Z,4.91
2018-01-13T05:43:49.501Z,4.93
2018-01-13T05:44:49.492Z,4.93
2018-01-13T05:45:49.479Z,4.96
2018-01-13T05:46:49.453Z,4.94
2018-01-13T05:47:49.435Z,4.96
2018-01-13T05:48:49.419Z,5.01
2018-01-13T05:49:49.402Z,4.90
2018-01-13T05:50:49.392Z,4.91
2018-01-13T05:51:49.375Z,4.97
2018-01-13T05:52:49.360Z,4.91
2018-01-13T05:53:49.339Z,4.86
2018-01-13T05:54:49.320Z,4.96
2018-01-13T05:55:49.310Z,4.99
2018-01-13T05:56:49.291Z,5.06
2018-01-13T05:57:49.275Z,5.11
2018-01-13T05:58:49.255Z,5.11
2018-01-13T05:59:49.239Z,5.12
2018-01-13T06:00:49.231Z,5.11
2018-01-13T06:01:49.207Z,5.19
2018-01-13T06:02:49.193Z,5.22
2018-01-13T06:03:49.175Z,5.20
2018-01-13T06:04:49.159Z,5.23
2018-01-13T06:05:49.141Z,5.08
2018-01-13T06:06:49.127Z,5.05
2018-01-13T06:07:49.120Z,4.97
2018-01-13T06:08:49.094Z,4.94
2018-01-13T06:09:49.076Z,4.94
2018-01-13T06:10:49.064Z,4.90
2018-01-13T06:11:49.046Z,4.96
2018-01-13T06:12:49.030Z,5.01
2018-01-13T06:13:49.017Z,5.08
2018-01-13T06:14:49.003Z,5.02
2018-01-13T06:15:48.979Z,4.97
2018-01-13T06:16:48.962Z,5.04
2018-01-13T06:17:48.945Z,4.94
2018-01-13T06:18:48.930Z,4.87
2018-01-13T06:19:48.912Z,4.84
2018-01-13T06:20:48.896Z,4.87
2018-01-13T06:21:48.880Z,4.84
2018-01-13T06:22:48.862Z,4.84
2018-01-13T06:23:48.853Z,4.87
2018-01-13T06:24:48.832Z,4.83
2018-01-13T06:25:48.814Z,4.79
2018-01-13T06:26:48.798Z,4.86
2018-01-13T06:27:48.798Z,4.83
2018-01-13T06:28:48.774Z,4.75
2018-01-13T06:29:48.755Z,4.83
2018-01-13T06:30:48.754Z,4.84
2018-01-13T06:31:48.731Z,4.84
2018-01-13T06:32:48.806Z,4.91
2018-01-13T06:33:48.723Z,4.86
2018-01-13T06:34:48.688Z,4.87
2018-01-13T06:35:48.660Z,4.90
2018-01-13T06:36:48.644Z,4.88
2018-01-13T06:37:48.621Z,4.80
2018-01-13T06:38:48.609Z,4.77
2018-01-13T06:39:48.593Z,4.75
2018-01-13T06:40:48.569Z,4.71
2018-01-13T06:41:48.551Z,4.67
2018-01-13T06:42:48.543Z,4.74
2018-01-13T06:43:48.516Z,4.69
2018-01-13T06:44:48.502Z,4.71
2018-01-13T06:45:48.483Z,4.75
2018-01-13T06:46:48.466Z,4.74
2018-01-13T06:47:48.451Z,4.75
2018-01-13T06:48:48.435Z,4.87
2018-01-13T06:49:48.424Z,4.74
2018-01-13T06:50:48.416Z,4.74
2018-01-13T06:51:48.386Z,4.71
2018-01-13T06:52:48.368Z,4.79
2018-01-13T06:53:48.351Z,4.71
2018-01-13T06:54:48.335Z,4.79
2018-01-13T06:55:48.323Z,4.80
2018-01-13T06:56:48.303Z,4.83
2018-01-13T06:57:48.290Z,4.69
2018-01-13T06:58:48.267Z,4.68
2018-01-13T06:59:48.257Z,4.65
2018-01-13T07:00:48.235Z,4.72
2018-01-13T07:01:48.219Z,4.69
2018-01-13T07:02:48.201Z,4.69
2018-01-13T07:03:48.184Z,4.84
2018-01-13T07:04:48.168Z,4.67
2018-01-13T07:05:48.159Z,4.79
2018-01-13T07:06:48.136Z,4.71
2018-01-13T07:07:48.125Z,4.71
2018-01-13T07:08:48.102Z,4.72
2018-01-13T07:09:48.087Z,4.69
2018-01-13T07:10:48.067Z,4.79
2018-01-13T07:11:48.051Z,4.80
2018-01-13T07:12:48.039Z,4.86
2018-01-13T07:13:48.016Z,4.84
2018-01-13T07:14:48.000Z,4.91
2018-01-13T07:15:47.988Z,4.88
2018-01-13T07:16:47.976Z,4.91
2018-01-13T07:17:47.948Z,4.87
2018-01-13T07:18:47.931Z,4.94
2018-01-13T07:19:47.942Z,4.96
2018-01-13T07:20:47.899Z,5.01
2018-01-13T07:21:47.881Z,5.02
2018-01-13T07:22:47.866Z,4.96
2018-01-13T07:23:47.856Z,5.04
2018-01-13T07:24:47.832Z,4.99
2018-01-13T07:25:47.819Z,4.97
2018-01-13T07:26:47.798Z,4.94
2018-01-13T07:27:47.783Z,4.90
2018-01-13T07:28:47.764Z,4.84
2018-01-13T07:29:47.802Z,4.83
2018-01-13T07:30:47.740Z,4.86
2018-01-13T07:31:47.715Z,4.84
2018-01-13T07:32:47.698Z,4.87
2018-01-13T07:33:47.682Z,4.88
2018-01-13T07:34:47.684Z,4.96
2018-01-13T07:35:47.648Z,4.94
2018-01-13T07:36:47.634Z,4.94
2018-01-13T07:37:47.615Z,4.94
2018-01-13T07:38:47.602Z,4.96
2018-01-13T07:39:47.586Z,4.91
2018-01-13T07:40:47.564Z,4.84
2018-01-13T07:41:47.546Z,4.90
2018-01-13T07:42:47.529Z,4.96
2018-01-13T07:43:47.515Z,4.99
2018-01-13T07:44:47.501Z,5.08
2018-01-13T07:45:47.483Z,5.11
2018-01-13T07:46:47.465Z,5.15
2018-01-13T07:47:47.448Z,5.20
2018-01-13T07:48:47.436Z,5.14
2018-01-13T07:49:47.418Z,5.14
2018-01-13T07:50:47.398Z,5.20
2018-01-13T07:51:47.394Z,5.22
2018-01-13T07:52:47.367Z,5.05
2018-01-13T07:53:47.347Z,5.06
2018-01-13T07:54:47.336Z,5.04
2018-01-13T07:55:47.314Z,5.06
2018-01-13T07:56:47.319Z,4.96
2018-01-13T07:57:47.279Z,5.01
2018-01-13T07:58:47.268Z,5.05
2018-01-13T07:59:47.253Z,4.99
2018-01-13T08:00:47.232Z,4.96
2018-01-13T08:01:47.221Z,5.08
2018-01-13T08:02:47.198Z,4.96
2018-01-13T08:03:47.187Z,4.91
2018-01-13T08:04:47.169Z,4.88
2018-01-13T08:05:47.149Z,4.84
2018-01-13T08:06:47.130Z,4.91
2018-01-13T08:07:47.114Z,4.83
2018-01-13T08:08:47.099Z,4.74
2018-01-13T08:09:47.081Z,4.86
2018-01-13T08:10:47.071Z,4.69
2018-01-13T08:11:47.046Z,4.69
2018-01-13T08:12:47.030Z,4.72
2018-01-13T08:13:47.017Z,4.68
2018-01-13T08:14:47.002Z,4.67
2018-01-13T08:15:46.985Z,4.59
2018-01-13T08:16:46.963Z,4.56
2018-01-13T08:17:46.945Z,4.56
2018-01-13T08:18:46.929Z,4.59
2018-01-13T08:19:46.911Z,4.47
2018-01-13T08:20:46.895Z,4.57
2018-01-13T08:21:46.877Z,4.46
2018-01-13T08:22:46.862Z,4.46
2018-01-13T08:23:46.844Z,4.49
2018-01-13T08:24:46.833Z,4.50
2018-01-13T08:25:46.814Z,4.56
2018-01-13T08:26:46.794Z,4.56
2018-01-13T08:27:46.776Z,4.47
2018-01-13T08:28:46.760Z,4.62
2018-01-13T08:29:46.744Z,4.64
2018-01-13T08:30:46.731Z,4.61
2018-01-13T08:31:46.709Z,4.59
2018-01-13T08:32:46.698Z,4.59
2018-01-13T08:33:46.684Z,4.61
2018-01-13T08:34:46.658Z,4.53
2018-01-13T08:35:46.640Z,4.54
2018-01-13T08:36:46.625Z,4.57
2018-01-13T08:37:46.608Z,4.62
2018-01-13T08:38:46.590Z,4.47
2018-01-13T08:39:46.571Z,4.51
2018-01-13T08:40:46.555Z,4.50
2018-01-13T08:41:46.542Z,4.50
2018-01-13T08:42:46.520Z,4.47
2018-01-13T08:43:46.504Z,4.53
2018-01-13T08:44:46.484Z,4.53
2018-01-13T08:45:46.469Z,4.59
2018-01-13T08:46:46.453Z,4.59
2018-01-13T08:47:46.436Z,4.54
2018-01-13T08:48:46.425Z,4.56
2018-01-13T08:49:46.403Z,4.51
2018-01-13T08:50:46.381Z,4.56
2018-01-13T08:51:46.368Z,4.61
2018-01-13T08:52:46.350Z,4.62
2018-01-13T08:53:46.330Z,4.61
2018-01-13T08:54:46.313Z,4.59
2018-01-13T08:55:46.302Z,4.61
2018-01-13T08:56:46.285Z,4.69
2018-01-13T08:57:46.266Z,4.65
2018-01-13T08:58:46.245Z,4.62
2018-01-13T08:59:46.229Z,4.64
2018-01-13T09:00:46.218Z,4.67
2018-01-13T09:01:46.193Z,4.69
2018-01-13T09:02:46.182Z,4.69
2018-01-13T09:03:46.159Z,4.77
2018-01-13T09:04:46.150Z,4.72
2018-01-13T09:05:46.124Z,4.71
2018-01-13T09:06:46.106Z,4.62
2018-01-13T09:07:46.089Z,4.61
2018-01-13T09:08:46.074Z,4.62
2018-01-13T09:09:46.053Z,4.65
2018-01-13T09:10:46.038Z,4.69
2018-01-13T09:11:46.028Z,4.67
2018-01-13T09:12:46.004Z,4.65
2018-01-13T09:13:45.990Z,4.71
2018-01-13T09:14:45.969Z,4.74
2018-01-13T09:15:45.955Z,4.67
2018-01-13T09:16:45.934Z,4.69
2018-01-13T09:17:45.916Z,4.72
2018-01-13T09:18:45.898Z,4.75
2018-01-13T09:19:45.884Z,4.67
2018-01-13T09:20:45.873Z,4.71
2018-01-13T09:21:45.851Z,4.64
2018-01-13T09:22:45.831Z,4.79
2018-01-13T09:23:45.821Z,4.72
2018-01-13T09:24:45.797Z,4.79
2018-01-13T09:25:45.779Z,4.67
2018-01-13T09:26:45.767Z,4.71
2018-01-13T09:27:45.753Z,4.77
2018-01-13T09:28:45.729Z,4.71
2018-01-13T09:29:45.710Z,4.72
2018-01-13T09:30:45.694Z,4.83
2018-01-13T09:31:45.678Z,4.69
2018-01-13T09:32:45.665Z,4.75
2018-01-13T09:33:45.646Z,4.80
2018-01-13T09:34:45.631Z,4.77
2018-01-13T09:35:45.616Z,4.83
2018-01-13T09:36:45.595Z,4.77
2018-01-13T09:37:45.574Z,4.87
2018-01-13T09:38:45.558Z,4.84
2018-01-13T09:39:45.538Z,4.84
2018-01-13T09:40:45.523Z,4.83
2018-01-13T09:41:45.504Z,4.83
2018-01-13T09:42:45.520Z,4.87
2018-01-13T09:43:45.472Z,4.84
2018-01-13T09:44:45.453Z,4.88
2018-01-13T09:45:45.438Z,4.80
2018-01-13T09:46:45.419Z,4.86
2018-01-13T09:47:45.402Z,4.84
2018-01-13T09:48:45.392Z,4.90
2018-01-13T09:49:45.375Z,4.84
2018-01-13T09:50:45.355Z,4.88
2018-01-13T09:51:45.335Z,4.87
2018-01-13T09:52:45.320Z,4.93
2018-01-13T09:53:45.302Z,4.91
2018-01-13T09:54:45.282Z,4.93
2018-01-13T09:55:45.264Z,5.04
2018-01-13T09:56:45.255Z,4.93
2018-01-13T09:57:45.231Z,4.91
2018-01-13T09:58:45.214Z,4.80
2018-01-13T09:59:45.199Z,4.94
2018-01-13T10:00:45.186Z,4.90
2018-01-13T10:01:45.167Z,4.96
2018-01-13T10:02:45.145Z,4.88
2018-01-13T10:03:45.129Z,4.96
2018-01-13T10:04:45.111Z,4.88
2018-01-13T10:05:45.095Z,4.97
2018-01-13T10:06:45.089Z,4.93
2018-01-13T10:07:45.060Z,4.94
2018-01-13T10:08:45.043Z,4.93
2018-01-13T10:09:45.026Z,4.91
2018-01-13T10:10:45.015Z,4.99
2018-01-13T10:11:44.991Z,4.97
2018-01-13T10:12:44.983Z,4.99
2018-01-13T10:13:44.959Z,4.93
2018-01-13T10:14:44.947Z,5.11
2018-01-13T10:15:44.924Z,4.97
2018-01-13T10:16:44.947Z,5.02
2018-01-13T10:17:44.895Z,4.97
2018-01-13T10:18:44.876Z,5.01
2018-01-13T10:19:44.860Z,5.04
2018-01-13T10:20:44.841Z,5.06
2018-01-13T10:21:44.826Z,5.09
2018-01-13T10:22:44.811Z,5.19
2018-01-13T10:23:44.801Z,5.17
2018-01-13T10:24:44.777Z,5.14
2018-01-13T10:25:44.758Z,5.09
2018-01-13T10:26:44.745Z,5.08
2018-01-13T10:27:44.724Z,5.14
2018-01-13T10:28:44.717Z,5.20
2018-01-13T10:29:44.734Z,5.22
2018-01-13T10:30:44.680Z,5.22
2018-01-13T10:31:44.663Z,5.20
2018-01-13T10:32:44.641Z,5.23
2018-01-13T10:33:44.622Z,5.23
2018-01-13T10:34:44.607Z,5.17
2018-01-13T10:35:44.590Z,5.19
2018-01-13T10:36:44.573Z,5.22
2018-01-13T10:37:44.556Z,5.17
2018-01-13T10:38:44.540Z,5.22
2018-01-13T10:39:44.523Z,5.22
2018-01-13T10:40:44.509Z,5.24
2018-01-13T10:41:44.488Z,5.26
2018-01-13T10:42:44.474Z,5.23
2018-01-13T10:43:44.461Z,5.19
2018-01-13T10:44:44.439Z,5.26
2018-01-13T10:45:44.423Z,5.27
2018-01-13T10:46:44.433Z,5.17
2018-01-13T10:47:44.389Z,5.19
2018-01-13T10:48:44.373Z,5.19
2018-01-13T10:49:44.362Z,5.19
2018-01-13T10:50:44.343Z,5.12
2018-01-13T10:51:44.321Z,5.22
2018-01-13T10:52:44.305Z,5.24
2018-01-13T10:53:44.293Z,5.23
2018-01-13T10:54:44.272Z,5.22
2018-01-13T10:55:44.255Z,5.22
2018-01-13T10:56:44.236Z,5.19
2018-01-13T10:57:44.222Z,5.26
2018-01-13T10:58:44.205Z,5.29
2018-01-13T10:59:44.248Z,5.29
2018-01-13T11:00:44.177Z,5.38
2018-01-13T11:01:44.154Z,5.40
2018-01-13T11:02:44.140Z,5.38
2018-01-13T11:03:44.122Z,5.42
2018-01-13T11:04:44.104Z,5.37
2018-01-13T11:05:44.087Z,5.45
2018-01-13T11:06:44.072Z,5.42
2018-01-13T11:07:44.057Z,5.38
2018-01-13T11:08:44.039Z,5.41
2018-01-13T11:09:44.025Z,5.40
2018-01-13T11:10:44.007Z,5.44
2018-01-13T11:11:43.990Z,5.27
2018-01-13T11:12:43.974Z,5.44
2018-01-13T11:13:43.956Z,5.38
2018-01-13T11:14:43.944Z,5.38
2018-01-13T11:15:43.924Z,5.47
2018-01-13T11:16:43.907Z,5.44
2018-01-13T11:17:43.890Z,5.45
2018-01-13T11:18:43.872Z,5.40
2018-01-13T11:19:43.863Z,5.44
2018-01-13T11:20:43.848Z,5.47
2018-01-13T11:21:43.831Z,5.45
2018-01-13T11:22:43.809Z,5.49
2018-01-13T11:23:43.798Z,5.47
2018-01-13T11:24:43.775Z,5.47
2018-01-13T11:25:43.760Z,5.51
2018-01-13T11:26:43.742Z,5.47
2018-01-13T11:27:43.724Z,5.58
2018-01-13T11:28:43.708Z,5.55
2018-01-13T11:29:43.699Z,5.58
2018-01-13T11:30:43.675Z,5.66
2018-01-13T11:31:43.665Z,5.62
2018-01-13T11:32:43.644Z,5.73
2018-01-13T11:33:43.627Z,5.77
2018-01-13T11:34:43.609Z,5.75
2018-01-13T11:35:43.600Z,5.74
2018-01-13T11:36:43.579Z,5.60
2018-01-13T11:37:43.562Z,5.66
2018-01-13T11:38:43.545Z,5.67
2018-01-13T11:39:43.528Z,5.69
2018-01-13T11:40:43.518Z,5.60
2018-01-13T11:41:43.499Z,5.70
2018-01-13T11:42:43.490Z,5.66
2018-01-13T11:43:43.472Z,5.77
2018-01-13T11:44:43.448Z,5.75
2018-01-13T11:45:43.430Z,5.69
2018-01-13T11:46:43.416Z,5.70
2018-01-13T11:47:43.399Z,5.77
2018-01-13T11:48:43.387Z,5.74
2018-01-13T11:49:43.365Z,5.70
2018-01-13T11:50:43.350Z,5.69
2018-01-13T11:51:43.338Z,5.70
2018-01-13T11:52:43.323Z,5.66
2018-01-13T11:53:43.304Z,5.66
2018-01-13T11:54:43.288Z,5.77
2018-01-13T11:55:43.382Z,5.69
2018-01-13T11:56:43.288Z,5.77
2018-01-13T11:57:43.255Z,5.77
2018-01-13T11:58:43.249Z,5.67
2018-01-13T11:59:43.212Z,5.69
2018-01-13T12:00:43.191Z,5.70
2018-01-13T12:01:43.175Z,5.92
2018-01-13T12:02:43.160Z,5.84
2018-01-13T12:03:43.144Z,5.84
2018-01-13T12:04:43.126Z,5.78
2018-01-13T12:05:43.110Z,5.77
2018-01-13T12:06:43.095Z,5.77
2018-01-13T12:07:43.078Z,5.73
2018-01-13T12:08:43.064Z,5.73
2018-01-13T12:09:43.050Z,5.78
2018-01-13T12:10:43.030Z,5.84
2018-01-13T12:11:43.018Z,5.85
2018-01-13T12:12:43.001Z,5.75
2018-01-13T12:13:42.990Z,5.62
2018-01-13T12:14:42.993Z,5.58
2018-01-13T12:15:42.965Z,5.56
2018-01-13T12:16:42.941Z,5.62
2018-01-13T12:17:42.927Z,5.67
2018-01-13T12:18:42.906Z,5.69
2018-01-13T12:19:42.894Z,5.78
2018-01-13T12:20:42.875Z,5.74
2018-01-13T12:21:42.871Z,5.84
2018-01-13T12:22:42.843Z,5.95
2018-01-13T12:23:42.822Z,5.85
2018-01-13T12:24:42.809Z,5.95
2018-01-13T12:25:42.792Z,5.92
2018-01-13T12:26:42.776Z,5.95
2018-01-13T12:27:42.769Z,5.85
2018-01-13T12:28:42.747Z,5.96
2018-01-13T12:29:42.734Z,5.93
2018-01-13T12:30:42.713Z,5.98
2018-01-13T12:31:42.696Z,5.96
2018-01-13T12:32:42.682Z,5.96
2018-01-13T12:33:42.670Z,6.05
2018-01-13T12:34:42.651Z,5.99
2018-01-13T12:35:42.633Z,6.01
2018-01-13T12:36:42.618Z,6.11
2018-01-13T12:37:42.606Z,6.03
2018-01-13T12:38:42.584Z,6.11
2018-01-13T12:39:42.580Z,6.14
2018-01-13T12:40:42.566Z,6.19
2018-01-13T12:41:42.546Z,6.25
2018-01-13T12:42:42.532Z,6.27
2018-01-13T12:43:42.513Z,6.33
2018-01-13T12:44:42.500Z,6.35
2018-01-13T12:45:42.478Z,6.46
2018-01-13T12:46:42.462Z,6.50
2018-01-13T12:47:42.446Z,6.45
2018-01-13T12:48:42.430Z,6.50
2018-01-13T12:49:42.454Z,6.30
2018-01-13T12:50:42.399Z,6.33
2018-01-13T12:51:42.386Z,6.30
2018-01-13T12:52:42.370Z,6.32
2018-01-13T12:53:42.358Z,6.27
2018-01-13T12:54:42.342Z,6.30
2018-01-13T12:55:42.323Z,6.25
2018-01-13T12:56:42.314Z,6.32
2018-01-13T12:57:42.330Z,6.30
2018-01-13T12:58:42.284Z,6.25
2018-01-13T12:59:42.267Z,6.24
2018-01-13T13:00:42.254Z,6.25
2018-01-13T13:01:42.233Z,6.14
2018-01-13T13:02:42.215Z,6.20
2018-01-13T13:03:42.202Z,6.16
2018-01-13T13:04:42.189Z,6.16
2018-01-13T13:05:42.169Z,6.13
2018-01-13T13:06:42.159Z,6.10
2018-01-13T13:07:42.147Z,6.24
2018-01-13T13:08:42.122Z,6.17
2018-01-13T13:09:42.114Z,6.08
2018-01-13T13:10:42.093Z,6.05
2018-01-13T13:11:42.078Z,6.24
2018-01-13T13:12:42.062Z,6.21
2018-01-13T13:13:42.108Z,6.20
2018-01-13T13:14:42.047Z,6.19
2018-01-13T13:15:42.023Z,6.24
2018-01-13T13:16:42.012Z,6.16
2018-01-13T13:17:41.982Z,6.10
2018-01-13T13:18:41.975Z,6.19